sensor_id;sensor_type;location;lat;lon;timestamp;P1;durP1;ratioP1;P2;durP2;ratioP2
73733;SDS011;62039;50.000;9.064;2022-10-13T00:00:21;8.03;;;5.93;;
73733;SDS011;62039;50.000;9.064;2022-10-13T00:02:48;7.57;;;5.70;;
73733;SDS011;62039;50.000;9.064;2022-10-13T00:05:15;7.60;;;5.60;;
73733;SDS011;62039;50.000;9.064;2022-10-13T00:07:41;5.93;;;5.33;;
73733;SDS011;62039;50.000;9.064;2022-10-13T00:10:08;7.80;;;5.60;;
73733;SDS011;62039;50.000;9.064;2022-10-13T00:12:36;7.27;;;5.60;;
73733;SDS011;62039;50.000;9.064;2022-10-13T00:15:05;7.10;;;5.57;;
73733;SDS011;62039;50.000;9.064;2022-10-13T00:17:33;6.77;;;5.40;;
73733;SDS011;62039;50.000;9.064;2022-10-13T00:20:00;6.77;;;5.47;;
73733;SDS011;62039;50.000;9.064;2022-10-13T00:22:26;6.10;;;5.57;;
73733;SDS011;62039;50.000;9.064;2022-10-13T00:24:53;6.47;;;5.87;;
73733;SDS011;62039;50.000;9.064;2022-10-13T00:27:19;7.67;;;5.43;;
73733;SDS011;62039;50.000;9.064;2022-10-13T00:29:47;7.17;;;5.97;;
73733;SDS011;62039;50.000;9.064;2022-10-13T00:32:14;6.47;;;5.77;;
73733;SDS011;62039;50.000;9.064;2022-10-13T00:34:41;8.10;;;6.03;;
73733;SDS011;62039;50.000;9.064;2022-10-13T00:37:07;6.83;;;5.90;;
73733;SDS011;62039;50.000;9.064;2022-10-13T00:39:34;6.60;;;5.90;;
73733;SDS011;62039;50.000;9.064;2022-10-13T00:42:01;7.60;;;5.60;;
73733;SDS011;62039;50.000;9.064;2022-10-13T00:47:23;6.00;;;5.40;;
73733;SDS011;62039;50.000;9.064;2022-10-13T00:49:51;5.20;;;4.70;;
73733;SDS011;62039;50.000;9.064;2022-10-13T00:52:20;5.90;;;4.87;;
73733;SDS011;62039;50.000;9.064;2022-10-13T00:54:47;4.60;;;4.20;;
73733;SDS011;62039;50.000;9.064;2022-10-13T00:57:15;4.93;;;4.30;;
73733;SDS011;62039;50.000;9.064;2022-10-13T00:59:44;4.20;;;3.80;;
73733;SDS011;62039;50.000;9.064;2022-10-13T01:02:11;4.40;;;4.00;;
73733;SDS011;62039;50.000;9.064;2022-10-13T01:04:39;3.93;;;3.63;;
73733;SDS011;62039;50.000;9.064;2022-10-13T01:07:08;5.53;;;4.30;;
73733;SDS011;62039;50.000;9.064;2022-10-13T01:09:35;6.60;;;4.97;;
73733;SDS011;62039;50.000;9.064;2022-10-13T01:12:05;6.63;;;5.70;;
73733;SDS011;62039;50.000;9.064;2022-10-13T01:14:37;7.37;;;5.10;;
73733;SDS011;62039;50.000;9.064;2022-10-13T01:17:11;5.90;;;4.90;;
73733;SDS011;62039;50.000;9.064;2022-10-13T01:19:50;9.30;;;5.40;;
73733;SDS011;62039;50.000;9.064;2022-10-13T01:22:33;7.70;;;4.93;;
73733;SDS011;62039;50.000;9.064;2022-10-13T01:25:11;5.83;;;4.63;;
73733;SDS011;62039;50.000;9.064;2022-10-13T01:27:50;5.67;;;5.07;;
73733;SDS011;62039;50.000;9.064;2022-10-13T01:30:42;5.33;;;4.83;;
73733;SDS011;62039;50.000;9.064;2022-10-13T01:33:13;5.10;;;4.60;;
73733;SDS011;62039;50.000;9.064;2022-10-13T01:35:55;9.60;;;5.67;;
73733;SDS011;62039;50.000;9.064;2022-10-13T01:38:32;18.63;;;6.23;;
73733;SDS011;62039;50.000;9.064;2022-10-13T01:41:04;8.53;;;5.37;;
73733;SDS011;62039;50.000;9.064;2022-10-13T01:43:37;6.10;;;5.00;;
73733;SDS011;62039;50.000;9.064;2022-10-13T01:46:08;8.50;;;4.97;;
73733;SDS011;62039;50.000;9.064;2022-10-13T01:48:37;6.03;;;4.43;;
73733;SDS011;62039;50.000;9.064;2022-10-13T01:51:06;5.23;;;4.73;;
73733;SDS011;62039;50.000;9.064;2022-10-13T01:53:37;5.30;;;4.33;;
73733;SDS011;62039;50.000;9.064;2022-10-13T01:56:04;4.70;;;4.30;;
73733;SDS011;62039;50.000;9.064;2022-10-13T01:58:32;7.93;;;5.50;;
73733;SDS011;62039;50.000;9.064;2022-10-13T02:01:03;7.10;;;5.13;;
73733;SDS011;62039;50.000;9.064;2022-10-13T02:03:42;6.43;;;5.77;;
73733;SDS011;62039;50.000;9.064;2022-10-13T02:06:17;5.57;;;5.07;;
73733;SDS011;62039;50.000;9.064;2022-10-13T02:08:50;5.40;;;4.70;;
73733;SDS011;62039;50.000;9.064;2022-10-13T02:11:23;5.30;;;4.80;;
73733;SDS011;62039;50.000;9.064;2022-10-13T02:13:51;5.20;;;4.23;;
73733;SDS011;62039;50.000;9.064;2022-10-13T02:16:26;5.07;;;4.57;;
73733;SDS011;62039;50.000;9.064;2022-10-13T02:18:56;4.40;;;4.00;;
73733;SDS011;62039;50.000;9.064;2022-10-13T02:21:23;5.43;;;4.80;;
73733;SDS011;62039;50.000;9.064;2022-10-13T02:23:50;5.30;;;4.80;;
73733;SDS011;62039;50.000;9.064;2022-10-13T02:26:16;4.53;;;4.13;;
73733;SDS011;62039;50.000;9.064;2022-10-13T02:28:43;4.27;;;3.87;;
73733;SDS011;62039;50.000;9.064;2022-10-13T02:31:10;5.13;;;4.63;;
73733;SDS011;62039;50.000;9.064;2022-10-13T02:33:38;5.13;;;4.63;;
73733;SDS011;62039;50.000;9.064;2022-10-13T02:36:04;5.10;;;4.70;;
73733;SDS011;62039;50.000;9.064;2022-10-13T02:38:31;4.60;;;4.17;;
73733;SDS011;62039;50.000;9.064;2022-10-13T02:40:59;5.10;;;4.47;;
73733;SDS011;62039;50.000;9.064;2022-10-13T02:43:26;5.03;;;4.53;;
73733;SDS011;62039;50.000;9.064;2022-10-13T02:45:52;5.63;;;4.67;;
73733;SDS011;62039;50.000;9.064;2022-10-13T02:48:19;6.60;;;5.77;;
73733;SDS011;62039;50.000;9.064;2022-10-13T02:50:47;5.80;;;5.20;;
73733;SDS011;62039;50.000;9.064;2022-10-13T02:53:13;5.23;;;4.67;;
73733;SDS011;62039;50.000;9.064;2022-10-13T02:55:40;5.83;;;5.00;;
73733;SDS011;62039;50.000;9.064;2022-10-13T02:58:06;5.50;;;4.90;;
73733;SDS011;62039;50.000;9.064;2022-10-13T03:00:33;5.13;;;4.03;;
73733;SDS011;62039;50.000;9.064;2022-10-13T03:02:59;5.87;;;5.17;;
73733;SDS011;62039;50.000;9.064;2022-10-13T03:05:26;6.10;;;5.50;;
73733;SDS011;62039;50.000;9.064;2022-10-13T03:07:54;5.50;;;5.00;;
73733;SDS011;62039;50.000;9.064;2022-10-13T03:10:20;5.30;;;4.80;;
73733;SDS011;62039;50.000;9.064;2022-10-13T03:12:47;6.77;;;5.93;;
73733;SDS011;62039;50.000;9.064;2022-10-13T03:15:13;6.03;;;5.47;;
73733;SDS011;62039;50.000;9.064;2022-10-13T03:17:40;7.40;;;5.60;;
73733;SDS011;62039;50.000;9.064;2022-10-13T03:20:07;5.07;;;4.60;;
73733;SDS011;62039;50.000;9.064;2022-10-13T03:22:34;5.87;;;4.87;;
73733;SDS011;62039;50.000;9.064;2022-10-13T03:25:02;5.87;;;4.87;;
73733;SDS011;62039;50.000;9.064;2022-10-13T03:27:29;6.30;;;5.53;;
73733;SDS011;62039;50.000;9.064;2022-10-13T03:29:56;5.70;;;5.17;;
73733;SDS011;62039;50.000;9.064;2022-10-13T03:32:22;11.23;;;6.37;;
73733;SDS011;62039;50.000;9.064;2022-10-13T03:34:49;6.47;;;5.87;;
73733;SDS011;62039;50.000;9.064;2022-10-13T03:37:16;5.43;;;4.93;;
73733;SDS011;62039;50.000;9.064;2022-10-13T03:39:42;5.03;;;4.53;;
73733;SDS011;62039;50.000;9.064;2022-10-13T03:42:10;6.13;;;5.50;;
73733;SDS011;62039;50.000;9.064;2022-10-13T03:44:37;5.33;;;4.83;;
73733;SDS011;62039;50.000;9.064;2022-10-13T03:47:03;5.20;;;4.73;;
73733;SDS011;62039;50.000;9.064;2022-10-13T03:49:30;5.03;;;4.63;;
73733;SDS011;62039;50.000;9.064;2022-10-13T03:51:56;6.63;;;5.97;;
73733;SDS011;62039;50.000;9.064;2022-10-13T03:54:23;5.70;;;5.20;;
73733;SDS011;62039;50.000;9.064;2022-10-13T03:56:49;5.93;;;4.83;;
73733;SDS011;62039;50.000;9.064;2022-10-13T03:59:17;5.70;;;5.20;;
73733;SDS011;62039;50.000;9.064;2022-10-13T04:01:44;7.07;;;5.53;;
73733;SDS011;62039;50.000;9.064;2022-10-13T04:04:10;5.93;;;5.10;;
73733;SDS011;62039;50.000;9.064;2022-10-13T04:06:37;5.83;;;5.23;;
73733;SDS011;62039;50.000;9.064;2022-10-13T04:09:04;5.37;;;4.87;;
73733;SDS011;62039;50.000;9.064;2022-10-13T04:11:31;5.60;;;5.10;;
73733;SDS011;62039;50.000;9.064;2022-10-13T04:13:57;6.17;;;5.10;;
73733;SDS011;62039;50.000;9.064;2022-10-13T04:16:26;5.10;;;4.70;;
73733;SDS011;62039;50.000;9.064;2022-10-13T04:18:55;6.20;;;5.60;;
73733;SDS011;62039;50.000;9.064;2022-10-13T04:21:23;5.83;;;4.83;;
73733;SDS011;62039;50.000;9.064;2022-10-13T04:23:50;6.47;;;5.43;;
73733;SDS011;62039;50.000;9.064;2022-10-13T04:26:20;7.30;;;5.33;;
73733;SDS011;62039;50.000;9.064;2022-10-13T04:28:47;6.53;;;5.37;;
73733;SDS011;62039;50.000;9.064;2022-10-13T04:31:15;6.87;;;6.10;;
73733;SDS011;62039;50.000;9.064;2022-10-13T04:33:43;8.07;;;6.70;;
73733;SDS011;62039;50.000;9.064;2022-10-13T04:36:10;6.00;;;5.37;;
73733;SDS011;62039;50.000;9.064;2022-10-13T04:38:38;6.33;;;5.73;;
73733;SDS011;62039;50.000;9.064;2022-10-13T04:41:05;7.27;;;6.30;;
73733;SDS011;62039;50.000;9.064;2022-10-13T04:43:33;5.57;;;5.00;;
73733;SDS011;62039;50.000;9.064;2022-10-13T04:46:00;6.00;;;5.40;;
73733;SDS011;62039;50.000;9.064;2022-10-13T04:48:27;6.40;;;5.63;;
73733;SDS011;62039;50.000;9.064;2022-10-13T04:50:58;9.10;;;5.73;;
73733;SDS011;62039;50.000;9.064;2022-10-13T04:53:26;7.53;;;5.43;;
73733;SDS011;62039;50.000;9.064;2022-10-13T04:55:52;6.13;;;5.53;;
73733;SDS011;62039;50.000;9.064;2022-10-13T04:58:19;5.50;;;5.00;;
73733;SDS011;62039;50.000;9.064;2022-10-13T05:00:46;5.83;;;4.80;;
73733;SDS011;62039;50.000;9.064;2022-10-13T05:03:12;5.07;;;4.57;;
73733;SDS011;62039;50.000;9.064;2022-10-13T05:05:39;6.23;;;5.60;;
73733;SDS011;62039;50.000;9.064;2022-10-13T05:08:07;6.30;;;5.70;;
73733;SDS011;62039;50.000;9.064;2022-10-13T05:10:33;6.97;;;5.97;;
73733;SDS011;62039;50.000;9.064;2022-10-13T05:13:00;6.60;;;5.53;;
73733;SDS011;62039;50.000;9.064;2022-10-13T05:15:26;6.27;;;5.30;;
73733;SDS011;62039;50.000;9.064;2022-10-13T05:17:53;7.43;;;6.43;;
73733;SDS011;62039;50.000;9.064;2022-10-13T05:20:19;5.47;;;4.97;;
73733;SDS011;62039;50.000;9.064;2022-10-13T05:22:46;5.57;;;4.97;;
73733;SDS011;62039;50.000;9.064;2022-10-13T05:25:14;5.20;;;4.70;;
73733;SDS011;62039;50.000;9.064;2022-10-13T05:27:40;5.67;;;5.07;;
73733;SDS011;62039;50.000;9.064;2022-10-13T05:30:07;5.23;;;4.70;;
73733;SDS011;62039;50.000;9.064;2022-10-13T05:32:34;6.97;;;5.57;;
73733;SDS011;62039;50.000;9.064;2022-10-13T05:35:01;7.47;;;5.57;;
73733;SDS011;62039;50.000;9.064;2022-10-13T05:37:27;5.53;;;5.03;;
73733;SDS011;62039;50.000;9.064;2022-10-13T05:39:54;6.27;;;5.67;;
73733;SDS011;62039;50.000;9.064;2022-10-13T05:42:22;6.77;;;6.03;;
73733;SDS011;62039;50.000;9.064;2022-10-13T05:44:48;6.00;;;5.10;;
73733;SDS011;62039;50.000;9.064;2022-10-13T05:47:15;6.23;;;5.40;;
73733;SDS011;62039;50.000;9.064;2022-10-13T05:49:42;7.27;;;5.17;;
73733;SDS011;62039;50.000;9.064;2022-10-13T05:52:09;5.83;;;5.20;;
73733;SDS011;62039;50.000;9.064;2022-10-13T05:54:37;6.27;;;4.73;;
73733;SDS011;62039;50.000;9.064;2022-10-13T05:57:07;5.60;;;5.00;;
73733;SDS011;62039;50.000;9.064;2022-10-13T05:59:39;6.17;;;5.33;;
73733;SDS011;62039;50.000;9.064;2022-10-13T06:02:09;6.97;;;6.03;;
73733;SDS011;62039;50.000;9.064;2022-10-13T06:04:40;6.77;;;5.63;;
73733;SDS011;62039;50.000;9.064;2022-10-13T06:07:10;5.73;;;5.13;;
73733;SDS011;62039;50.000;9.064;2022-10-13T06:09:37;6.37;;;5.77;;
73733;SDS011;62039;50.000;9.064;2022-10-13T06:12:05;5.47;;;4.90;;
73733;SDS011;62039;50.000;9.064;2022-10-13T06:14:32;6.27;;;5.67;;
73733;SDS011;62039;50.000;9.064;2022-10-13T06:17:01;6.63;;;5.60;;
73733;SDS011;62039;50.000;9.064;2022-10-13T06:19:27;6.47;;;5.80;;
73733;SDS011;62039;50.000;9.064;2022-10-13T06:21:54;6.53;;;5.23;;
73733;SDS011;62039;50.000;9.064;2022-10-13T06:24:24;7.67;;;5.87;;
73733;SDS011;62039;50.000;9.064;2022-10-13T06:26:50;6.43;;;5.77;;
73733;SDS011;62039;50.000;9.064;2022-10-13T06:29:17;7.83;;;6.13;;
73733;SDS011;62039;50.000;9.064;2022-10-13T06:31:43;6.83;;;6.13;;
73733;SDS011;62039;50.000;9.064;2022-10-13T06:34:11;8.67;;;7.07;;
73733;SDS011;62039;50.000;9.064;2022-10-13T06:36:38;8.20;;;6.70;;
73733;SDS011;62039;50.000;9.064;2022-10-13T06:39:04;9.67;;;7.83;;
73733;SDS011;62039;50.000;9.064;2022-10-13T06:41:31;8.20;;;7.40;;
73733;SDS011;62039;50.000;9.064;2022-10-13T06:43:57;9.23;;;7.23;;
73733;SDS011;62039;50.000;9.064;2022-10-13T06:46:24;6.67;;;5.90;;
73733;SDS011;62039;50.000;9.064;2022-10-13T06:48:50;6.67;;;5.83;;
73733;SDS011;62039;50.000;9.064;2022-10-13T06:51:18;6.60;;;5.97;;
73733;SDS011;62039;50.000;9.064;2022-10-13T06:53:46;6.33;;;5.70;;
73733;SDS011;62039;50.000;9.064;2022-10-13T06:56:13;7.27;;;6.17;;
73733;SDS011;62039;50.000;9.064;2022-10-13T06:58:39;7.30;;;6.60;;
73733;SDS011;62039;50.000;9.064;2022-10-13T07:01:06;7.30;;;6.60;;
73733;SDS011;62039;50.000;9.064;2022-10-13T07:03:32;7.53;;;6.73;;
73733;SDS011;62039;50.000;9.064;2022-10-13T07:05:59;9.53;;;7.87;;
73733;SDS011;62039;50.000;9.064;2022-10-13T07:08:27;10.30;;;9.23;;
73733;SDS011;62039;50.000;9.064;2022-10-13T07:10:54;10.13;;;8.90;;
73733;SDS011;62039;50.000;9.064;2022-10-13T07:13:21;10.00;;;8.20;;
73733;SDS011;62039;50.000;9.064;2022-10-13T07:15:52;9.63;;;8.73;;
73733;SDS011;62039;50.000;9.064;2022-10-13T07:18:18;9.93;;;8.47;;
73733;SDS011;62039;50.000;9.064;2022-10-13T07:20:45;8.67;;;7.27;;
73733;SDS011;62039;50.000;9.064;2022-10-13T07:23:11;11.43;;;8.27;;
73733;SDS011;62039;50.000;9.064;2022-10-13T07:25:39;8.00;;;7.00;;
73733;SDS011;62039;50.000;9.064;2022-10-13T07:28:06;8.20;;;7.33;;
73733;SDS011;62039;50.000;9.064;2022-10-13T07:30:32;12.80;;;8.53;;
73733;SDS011;62039;50.000;9.064;2022-10-13T07:32:59;10.90;;;8.43;;
73733;SDS011;62039;50.000;9.064;2022-10-13T07:35:25;9.10;;;7.37;;
73733;SDS011;62039;50.000;9.064;2022-10-13T07:37:56;8.97;;;7.23;;
73733;SDS011;62039;50.000;9.064;2022-10-13T07:40:22;9.73;;;8.33;;
73733;SDS011;62039;50.000;9.064;2022-10-13T07:42:50;11.80;;;8.80;;
73733;SDS011;62039;50.000;9.064;2022-10-13T07:45:17;11.97;;;8.70;;
73733;SDS011;62039;50.000;9.064;2022-10-13T07:47:43;12.13;;;9.13;;
73733;SDS011;62039;50.000;9.064;2022-10-13T07:50:10;8.83;;;7.93;;
73733;SDS011;62039;50.000;9.064;2022-10-13T07:52:36;11.20;;;8.33;;
73733;SDS011;62039;50.000;9.064;2022-10-13T07:55:03;7.93;;;7.13;;
73733;SDS011;62039;50.000;9.064;2022-10-13T07:57:31;7.33;;;6.63;;
73733;SDS011;62039;50.000;9.064;2022-10-13T07:59:58;8.80;;;6.93;;
73733;SDS011;62039;50.000;9.064;2022-10-13T08:02:25;8.50;;;7.70;;
73733;SDS011;62039;50.000;9.064;2022-10-13T08:04:52;9.43;;;8.13;;
73733;SDS011;62039;50.000;9.064;2022-10-13T08:07:18;16.70;;;9.47;;
73733;SDS011;62039;50.000;9.064;2022-10-13T08:09:45;9.13;;;7.97;;
73733;SDS011;62039;50.000;9.064;2022-10-13T08:12:11;7.70;;;6.93;;
73733;SDS011;62039;50.000;9.064;2022-10-13T08:14:38;9.60;;;7.27;;
73733;SDS011;62039;50.000;9.064;2022-10-13T08:17:06;8.70;;;6.93;;
73733;SDS011;62039;50.000;9.064;2022-10-13T08:19:33;7.30;;;6.37;;
73733;SDS011;62039;50.000;9.064;2022-10-13T08:21:59;8.73;;;6.93;;
73733;SDS011;62039;50.000;9.064;2022-10-13T08:24:26;8.47;;;7.57;;
73733;SDS011;62039;50.000;9.064;2022-10-13T08:26:53;9.57;;;7.53;;
73733;SDS011;62039;50.000;9.064;2022-10-13T08:29:20;7.83;;;6.97;;
73733;SDS011;62039;50.000;9.064;2022-10-13T08:31:49;9.00;;;6.87;;
73733;SDS011;62039;50.000;9.064;2022-10-13T08:34:19;10.53;;;8.40;;
73733;SDS011;62039;50.000;9.064;2022-10-13T08:36:46;8.53;;;7.63;;
73733;SDS011;62039;50.000;9.064;2022-10-13T08:39:12;8.80;;;7.60;;
73733;SDS011;62039;50.000;9.064;2022-10-13T08:41:40;7.13;;;6.17;;
73733;SDS011;62039;50.000;9.064;2022-10-13T08:44:10;9.00;;;7.40;;
73733;SDS011;62039;50.000;9.064;2022-10-13T08:47:05;7.53;;;6.77;;
73733;SDS011;62039;50.000;9.064;2022-10-13T08:49:40;8.37;;;7.47;;
73733;SDS011;62039;50.000;9.064;2022-10-13T08:52:08;9.47;;;8.57;;
73733;SDS011;62039;50.000;9.064;2022-10-13T08:54:41;9.27;;;7.57;;
73733;SDS011;62039;50.000;9.064;2022-10-13T08:57:08;9.40;;;7.60;;
73733;SDS011;62039;50.000;9.064;2022-10-13T08:59:35;8.73;;;7.60;;
73733;SDS011;62039;50.000;9.064;2022-10-13T09:02:04;8.07;;;7.13;;
73733;SDS011;62039;50.000;9.064;2022-10-13T09:04:38;10.33;;;8.97;;
73733;SDS011;62039;50.000;9.064;2022-10-13T09:07:10;11.80;;;7.43;;
73733;SDS011;62039;50.000;9.064;2022-10-13T09:09:39;9.73;;;8.00;;
73733;SDS011;62039;50.000;9.064;2022-10-13T09:12:08;11.20;;;8.73;;
73733;SDS011;62039;50.000;9.064;2022-10-13T09:14:36;11.90;;;8.40;;
73733;SDS011;62039;50.000;9.064;2022-10-13T09:17:14;10.87;;;8.47;;
73733;SDS011;62039;50.000;9.064;2022-10-13T09:19:44;12.43;;;8.17;;
73733;SDS011;62039;50.000;9.064;2022-10-13T09:22:24;12.60;;;11.23;;
73733;SDS011;62039;50.000;9.064;2022-10-13T09:27:42;9.77;;;7.80;;
73733;SDS011;62039;50.000;9.064;2022-10-13T09:30:23;11.07;;;8.27;;
73733;SDS011;62039;50.000;9.064;2022-10-13T09:33:05;9.67;;;7.47;;
73733;SDS011;62039;50.000;9.064;2022-10-13T09:35:47;8.13;;;7.20;;
73733;SDS011;62039;50.000;9.064;2022-10-13T09:38:15;9.33;;;7.17;;
73733;SDS011;62039;50.000;9.064;2022-10-13T09:40:44;9.27;;;7.40;;
73733;SDS011;62039;50.000;9.064;2022-10-13T09:43:24;9.43;;;8.03;;
73733;SDS011;62039;50.000;9.064;2022-10-13T09:45:55;8.20;;;7.40;;
73733;SDS011;62039;50.000;9.064;2022-10-13T09:48:23;9.07;;;8.07;;
73733;SDS011;62039;50.000;9.064;2022-10-13T09:50:53;8.10;;;6.50;;
73733;SDS011;62039;50.000;9.064;2022-10-13T09:53:22;7.97;;;7.13;;
73733;SDS011;62039;50.000;9.064;2022-10-13T09:56:07;9.77;;;7.57;;
73733;SDS011;62039;50.000;9.064;2022-10-13T09:58:36;8.87;;;7.97;;
73733;SDS011;62039;50.000;9.064;2022-10-13T10:01:08;9.47;;;7.90;;
73733;SDS011;62039;50.000;9.064;2022-10-13T10:03:43;8.80;;;7.90;;
73733;SDS011;62039;50.000;9.064;2022-10-13T10:06:13;10.63;;;8.57;;
73733;SDS011;62039;50.000;9.064;2022-10-13T10:08:43;8.53;;;7.10;;
73733;SDS011;62039;50.000;9.064;2022-10-13T10:11:32;8.20;;;7.37;;
73733;SDS011;62039;50.000;9.064;2022-10-13T10:14:04;9.83;;;7.60;;
73733;SDS011;62039;50.000;9.064;2022-10-13T10:16:40;7.40;;;6.63;;
73733;SDS011;62039;50.000;9.064;2022-10-13T10:19:12;7.47;;;6.43;;
73733;SDS011;62039;50.000;9.064;2022-10-13T10:21:48;7.90;;;6.60;;
73733;SDS011;62039;50.000;9.064;2022-10-13T10:24:20;7.97;;;5.90;;
73733;SDS011;62039;50.000;9.064;2022-10-13T10:26:53;7.33;;;6.27;;
73733;SDS011;62039;50.000;9.064;2022-10-13T10:29:23;7.40;;;6.17;;
73733;SDS011;62039;50.000;9.064;2022-10-13T10:32:10;6.57;;;5.97;;
73733;SDS011;62039;50.000;9.064;2022-10-13T10:34:52;6.10;;;5.33;;
73733;SDS011;62039;50.000;9.064;2022-10-13T10:37:31;7.07;;;6.03;;
73733;SDS011;62039;50.000;9.064;2022-10-13T10:40:10;7.00;;;6.30;;
73733;SDS011;62039;50.000;9.064;2022-10-13T10:42:50;6.70;;;6.07;;
73733;SDS011;62039;50.000;9.064;2022-10-13T10:45:25;7.17;;;6.47;;
73733;SDS011;62039;50.000;9.064;2022-10-13T10:47:54;7.60;;;6.00;;
73733;SDS011;62039;50.000;9.064;2022-10-13T10:50:23;8.40;;;6.30;;
73733;SDS011;62039;50.000;9.064;2022-10-13T10:52:54;6.73;;;6.13;;
73733;SDS011;62039;50.000;9.064;2022-10-13T10:55:27;7.03;;;6.37;;
73733;SDS011;62039;50.000;9.064;2022-10-13T10:58:01;7.10;;;6.33;;
73733;SDS011;62039;50.000;9.064;2022-10-13T11:00:37;6.50;;;5.80;;
73733;SDS011;62039;50.000;9.064;2022-10-13T11:03:06;6.33;;;5.53;;
73733;SDS011;62039;50.000;9.064;2022-10-13T11:05:57;6.80;;;5.83;;
73733;SDS011;62039;50.000;9.064;2022-10-13T11:08:27;7.80;;;6.27;;
73733;SDS011;62039;50.000;9.064;2022-10-13T11:14:18;7.10;;;6.40;;
73733;SDS011;62039;50.000;9.064;2022-10-13T11:17:12;8.30;;;7.50;;
73733;SDS011;62039;50.000;9.064;2022-10-13T11:19:43;8.13;;;7.10;;
73733;SDS011;62039;50.000;9.064;2022-10-13T11:22:11;9.50;;;8.00;;
73733;SDS011;62039;50.000;9.064;2022-10-13T11:24:52;8.20;;;6.77;;
73733;SDS011;62039;50.000;9.064;2022-10-13T11:27:24;6.50;;;5.73;;
73733;SDS011;62039;50.000;9.064;2022-10-13T11:29:53;7.80;;;5.87;;
73733;SDS011;62039;50.000;9.064;2022-10-13T11:35:17;8.43;;;7.43;;
73733;SDS011;62039;50.000;9.064;2022-10-13T11:37:49;8.83;;;7.90;;
73733;SDS011;62039;50.000;9.064;2022-10-13T11:40:42;7.63;;;6.80;;
73733;SDS011;62039;50.000;9.064;2022-10-13T11:43:30;6.70;;;5.47;;
73733;SDS011;62039;50.000;9.064;2022-10-13T11:46:17;6.57;;;5.87;;
73733;SDS011;62039;50.000;9.064;2022-10-13T11:51:48;10.27;;;6.83;;
73733;SDS011;62039;50.000;9.064;2022-10-13T11:54:30;9.20;;;7.17;;
73733;SDS011;62039;50.000;9.064;2022-10-13T11:57:02;7.30;;;6.30;;
73733;SDS011;62039;50.000;9.064;2022-10-13T11:59:44;8.57;;;7.57;;
73733;SDS011;62039;50.000;9.064;2022-10-13T12:02:13;11.87;;;8.83;;
73733;SDS011;62039;50.000;9.064;2022-10-13T12:04:45;6.80;;;5.90;;
73733;SDS011;62039;50.000;9.064;2022-10-13T12:07:25;6.23;;;5.63;;
73733;SDS011;62039;50.000;9.064;2022-10-13T12:09:57;8.23;;;7.30;;
73733;SDS011;62039;50.000;9.064;2022-10-13T12:12:25;7.70;;;6.50;;
73733;SDS011;62039;50.000;9.064;2022-10-13T12:14:52;9.30;;;7.00;;
73733;SDS011;62039;50.000;9.064;2022-10-13T12:17:21;7.10;;;6.50;;
73733;SDS011;62039;50.000;9.064;2022-10-13T12:19:49;6.97;;;5.53;;
73733;SDS011;62039;50.000;9.064;2022-10-13T12:22:16;6.53;;;5.30;;
73733;SDS011;62039;50.000;9.064;2022-10-13T12:24:42;8.50;;;7.20;;
73733;SDS011;62039;50.000;9.064;2022-10-13T12:27:21;7.33;;;6.53;;
73733;SDS011;62039;50.000;9.064;2022-10-13T12:29:49;8.80;;;6.17;;
73733;SDS011;62039;50.000;9.064;2022-10-13T12:32:17;6.80;;;6.10;;
73733;SDS011;62039;50.000;9.064;2022-10-13T12:34:45;7.63;;;5.53;;
73733;SDS011;62039;50.000;9.064;2022-10-13T12:37:12;5.83;;;5.07;;
73733;SDS011;62039;50.000;9.064;2022-10-13T12:39:43;5.40;;;4.83;;
73733;SDS011;62039;50.000;9.064;2022-10-13T12:42:11;6.00;;;5.30;;
73733;SDS011;62039;50.000;9.064;2022-10-13T12:44:39;5.90;;;4.43;;
73733;SDS011;62039;50.000;9.064;2022-10-13T12:47:33;5.80;;;4.70;;
73733;SDS011;62039;50.000;9.064;2022-10-13T12:53:04;4.50;;;3.83;;
73733;SDS011;62039;50.000;9.064;2022-10-13T12:55:44;6.20;;;5.60;;
73733;SDS011;62039;50.000;9.064;2022-10-13T12:58:16;6.73;;;5.33;;
73733;SDS011;62039;50.000;9.064;2022-10-13T13:00:53;6.13;;;5.53;;
73733;SDS011;62039;50.000;9.064;2022-10-13T13:03:42;7.47;;;5.80;;
73733;SDS011;62039;50.000;9.064;2022-10-13T13:06:18;7.43;;;5.97;;
73733;SDS011;62039;50.000;9.064;2022-10-13T13:08:47;6.80;;;5.77;;
73733;SDS011;62039;50.000;9.064;2022-10-13T13:11:33;5.87;;;4.60;;
73733;SDS011;62039;50.000;9.064;2022-10-13T13:17:03;7.37;;;4.73;;
73733;SDS011;62039;50.000;9.064;2022-10-13T13:19:32;7.03;;;5.70;;
73733;SDS011;62039;50.000;9.064;2022-10-13T13:22:00;6.23;;;5.07;;
73733;SDS011;62039;50.000;9.064;2022-10-13T13:24:27;6.07;;;5.43;;
73733;SDS011;62039;50.000;9.064;2022-10-13T13:29:57;5.83;;;5.23;;
73733;SDS011;62039;50.000;9.064;2022-10-13T13:32:25;6.17;;;5.10;;
73733;SDS011;62039;50.000;9.064;2022-10-13T13:34:53;5.83;;;5.13;;
73733;SDS011;62039;50.000;9.064;2022-10-13T13:37:24;6.30;;;5.10;;
73733;SDS011;62039;50.000;9.064;2022-10-13T13:39:53;6.23;;;5.63;;
73733;SDS011;62039;50.000;9.064;2022-10-13T13:42:19;5.77;;;4.67;;
73733;SDS011;62039;50.000;9.064;2022-10-13T13:44:46;6.00;;;4.80;;
73733;SDS011;62039;50.000;9.064;2022-10-13T13:47:14;5.47;;;4.60;;
73733;SDS011;62039;50.000;9.064;2022-10-13T13:49:42;5.57;;;4.40;;
73733;SDS011;62039;50.000;9.064;2022-10-13T13:52:10;4.97;;;4.10;;
73733;SDS011;62039;50.000;9.064;2022-10-13T13:54:37;4.80;;;4.13;;
73733;SDS011;62039;50.000;9.064;2022-10-13T13:57:04;9.47;;;6.20;;
73733;SDS011;62039;50.000;9.064;2022-10-13T13:59:30;6.87;;;4.57;;
73733;SDS011;62039;50.000;9.064;2022-10-13T14:01:57;5.03;;;4.63;;
73733;SDS011;62039;50.000;9.064;2022-10-13T14:04:24;5.73;;;5.13;;
73733;SDS011;62039;50.000;9.064;2022-10-13T14:06:50;4.23;;;3.80;;
73733;SDS011;62039;50.000;9.064;2022-10-13T14:09:18;5.73;;;4.63;;
73733;SDS011;62039;50.000;9.064;2022-10-13T14:11:45;5.73;;;4.60;;
73733;SDS011;62039;50.000;9.064;2022-10-13T14:14:11;5.63;;;4.77;;
73733;SDS011;62039;50.000;9.064;2022-10-13T14:16:38;4.70;;;4.30;;
73733;SDS011;62039;50.000;9.064;2022-10-13T14:19:04;5.30;;;4.80;;
73733;SDS011;62039;50.000;9.064;2022-10-13T14:21:31;4.97;;;4.47;;
73733;SDS011;62039;50.000;9.064;2022-10-13T14:23:57;4.30;;;3.90;;
73733;SDS011;62039;50.000;9.064;2022-10-13T14:26:25;7.83;;;5.47;;
73733;SDS011;62039;50.000;9.064;2022-10-13T14:28:52;6.03;;;5.33;;
73733;SDS011;62039;50.000;9.064;2022-10-13T14:31:18;8.63;;;6.10;;
73733;SDS011;62039;50.000;9.064;2022-10-13T14:33:45;4.87;;;4.37;;
73733;SDS011;62039;50.000;9.064;2022-10-13T14:36:17;4.97;;;4.47;;
73733;SDS011;62039;50.000;9.064;2022-10-13T14:38:43;6.73;;;5.13;;
73733;SDS011;62039;50.000;9.064;2022-10-13T14:41:10;5.07;;;4.57;;
73733;SDS011;62039;50.000;9.064;2022-10-13T14:43:39;4.37;;;3.97;;
73733;SDS011;62039;50.000;9.064;2022-10-13T14:46:06;5.00;;;4.50;;
73733;SDS011;62039;50.000;9.064;2022-10-13T14:48:32;5.03;;;4.63;;
73733;SDS011;62039;50.000;9.064;2022-10-13T14:51:02;7.23;;;5.60;;
73733;SDS011;62039;50.000;9.064;2022-10-13T14:53:30;6.50;;;5.90;;
73733;SDS011;62039;50.000;9.064;2022-10-13T14:55:58;5.03;;;4.53;;
73733;SDS011;62039;50.000;9.064;2022-10-13T14:58:24;6.60;;;5.20;;
73733;SDS011;62039;50.000;9.064;2022-10-13T15:00:52;6.27;;;5.50;;
73733;SDS011;62039;50.000;9.064;2022-10-13T15:03:19;6.43;;;5.53;;
73733;SDS011;62039;50.000;9.064;2022-10-13T15:05:45;5.57;;;5.07;;
73733;SDS011;62039;50.000;9.064;2022-10-13T15:08:12;7.73;;;6.33;;
73733;SDS011;62039;50.000;9.064;2022-10-13T15:10:38;6.13;;;5.53;;
73733;SDS011;62039;50.000;9.064;2022-10-13T15:13:05;5.13;;;4.33;;
73733;SDS011;62039;50.000;9.064;2022-10-13T15:15:31;6.50;;;4.67;;
73733;SDS011;62039;50.000;9.064;2022-10-13T15:17:59;5.60;;;4.33;;
73733;SDS011;62039;50.000;9.064;2022-10-13T15:20:26;5.07;;;4.60;;
73733;SDS011;62039;50.000;9.064;2022-10-13T15:22:52;5.30;;;4.80;;